< < Back
Terminal Aerodrome Forecast


Current Version              Previous Versions:   1  2  3  4  5  6  7  8  9  

Terminal Aerodrome Forecast

428
FTUS42 KFFC 301720
TAFPDK
TAF
KPDK 301720Z 3018/3118 32014G25KT P6SM SKC
     FM302300 33008KT P6SM SKC
     FM310500 00000KT P6SM FEW180=

Latest METAR

030
SAUS70 KWBC 311600
MTRPDK
METAR KPDK 311553Z 16006KT 10SM CLR 06/M08 A3038 RMK AO2 SLP301
T00611078


USA.gov is the U.S. government's official web portal to all federal, state and local government web resources and services.